createdAt,value
2016-12-31T00:00:21.022Z,0
2016-12-31T00:01:20.609Z,0
2016-12-31T00:02:21.326Z,0
2016-12-31T00:03:20.896Z,0
2016-12-31T00:04:21.239Z,0
2016-12-31T00:05:20.810Z,0
2016-12-31T00:06:21.157Z,0
2016-12-31T00:07:19.955Z,0
2016-12-31T00:08:21.067Z,0
2016-12-31T00:09:20.647Z,0
2016-12-31T00:10:20.983Z,0
2016-12-31T00:11:20.555Z,0
2016-12-31T00:12:20.132Z,0
2016-12-31T00:13:20.478Z,0
2016-12-31T00:14:20.432Z,0
2016-12-31T00:15:20.393Z,0
2016-12-31T00:16:20.343Z,0
2016-12-31T00:17:20.309Z,0
2016-12-31T00:18:20.645Z,0
2016-12-31T00:19:20.217Z,0
2016-12-31T00:20:20.566Z,0
2016-12-31T00:21:20.130Z,0
2016-12-31T00:22:19.717Z,0
2016-12-31T00:23:20.432Z,0
2016-12-31T00:24:19.623Z,0
2016-12-31T00:25:19.962Z,0
2016-12-31T00:26:20.306Z,0
2016-12-31T00:27:19.874Z,0
2016-12-31T00:28:19.832Z,0
2016-12-31T00:29:19.055Z,0
2016-12-31T00:30:19.746Z,0
2016-12-31T00:31:19.319Z,0
2016-12-31T00:32:19.661Z,0
2016-12-31T00:33:19.237Z,0
2016-12-31T00:34:19.961Z,0
2016-12-31T00:35:19.538Z,0
2016-12-31T00:36:19.874Z,0
2016-12-31T00:37:19.836Z,0
2016-12-31T00:38:19.793Z,0
2016-12-31T00:39:19.752Z,0
2016-12-31T00:40:18.937Z,0
2016-12-31T00:41:18.925Z,0
2016-12-31T00:42:18.847Z,0
2016-12-31T00:43:19.580Z,0
2016-12-31T00:44:19.555Z,0
2016-12-31T00:45:19.132Z,0
2016-12-31T00:46:19.453Z,0
2016-12-31T00:47:19.410Z,0
2016-12-31T00:48:19.362Z,0
2016-12-31T00:49:18.938Z,0
2016-12-31T00:50:18.894Z,0
2016-12-31T00:51:18.858Z,0
2016-12-31T00:52:19.195Z,0
2016-12-31T00:53:19.147Z,0
2016-12-31T00:54:19.117Z,0
2016-12-31T00:55:19.068Z,0
2016-12-31T00:56:18.639Z,0
2016-12-31T00:57:18.988Z,0
2016-12-31T00:58:18.940Z,0
2016-12-31T00:59:18.508Z,0
2016-12-31T01:00:18.857Z,0
2016-12-31T01:01:18.424Z,0
2016-12-31T01:02:18.783Z,0
2016-12-31T01:03:18.726Z,0
2016-12-31T01:04:18.691Z,0
2016-12-31T01:05:18.639Z,0
2016-12-31T01:06:18.221Z,0
2016-12-31T01:07:18.179Z,0
2016-12-31T01:08:18.132Z,0
2016-12-31T01:09:18.088Z,0
2016-12-31T01:10:18.051Z,0
2016-12-31T01:11:18.393Z,0
2016-12-31T01:12:17.963Z,0
2016-12-31T01:13:17.950Z,0
2016-12-31T01:14:18.280Z,0
2016-12-31T01:15:17.837Z,0
2016-12-31T01:16:18.176Z,0
2016-12-31T01:17:17.745Z,0
2016-12-31T01:18:17.705Z,0
2016-12-31T01:19:17.684Z,0
2016-12-31T01:20:17.620Z,0
2016-12-31T01:21:17.589Z,0
2016-12-31T01:22:17.533Z,0
2016-12-31T01:23:17.105Z,0
2016-12-31T01:24:17.473Z,0
2016-12-31T01:25:17.022Z,0
2016-12-31T01:26:17.748Z,0
2016-12-31T01:27:17.325Z,0
2016-12-31T01:28:17.666Z,0
2016-12-31T01:29:17.240Z,0
2016-12-31T01:30:16.820Z,0
2016-12-31T01:31:17.532Z,0
2016-12-31T01:32:17.109Z,0
2016-12-31T01:33:17.064Z,0
2016-12-31T01:34:17.409Z,0
2016-12-31T01:35:16.984Z,0
2016-12-31T01:36:17.324Z,0
2016-12-31T01:37:17.281Z,0
2016-12-31T01:38:17.258Z,0
2016-12-31T01:39:17.198Z,0
2016-12-31T01:40:17.158Z,0
2016-12-31T01:41:17.104Z,0
2016-12-31T01:42:16.681Z,0
2016-12-31T01:43:16.643Z,0
2016-12-31T01:44:16.983Z,0
2016-12-31T01:45:16.166Z,0
2016-12-31T01:46:16.940Z,0
2016-12-31T01:47:16.874Z,0
2016-12-31T01:48:16.425Z,0
2016-12-31T01:49:16.379Z,0
2016-12-31T01:50:16.724Z,0
2016-12-31T01:51:16.294Z,0
2016-12-31T01:52:16.640Z,0
2016-12-31T01:53:16.211Z,0
2016-12-31T01:54:16.165Z,0
2016-12-31T01:55:16.516Z,0
2016-12-31T01:56:15.316Z,0
2016-12-31T01:57:15.658Z,0
2016-12-31T01:58:16.389Z,0
2016-12-31T01:59:16.354Z,0
2016-12-31T02:00:15.141Z,0
2016-12-31T02:01:16.263Z,0
2016-12-31T02:02:15.828Z,0
2016-12-31T02:03:15.807Z,0
2016-12-31T02:04:16.126Z,0
2016-12-31T02:05:15.328Z,0
2016-12-31T02:06:15.660Z,0
2016-12-31T02:07:14.843Z,0
2016-12-31T02:08:15.570Z,0
2016-12-31T02:09:15.143Z,0
2016-12-31T02:10:15.872Z,0
2016-12-31T02:11:15.829Z,0
2016-12-31T02:12:15.788Z,0
2016-12-31T02:13:15.747Z,0
2016-12-31T02:14:15.700Z,0
2016-12-31T02:15:15.268Z,0
2016-12-31T02:16:14.850Z,0
2016-12-31T02:17:15.194Z,0
2016-12-31T02:18:15.143Z,0
2016-12-31T02:19:13.970Z,0
2016-12-31T02:20:15.063Z,0
2016-12-31T02:21:15.403Z,0
2016-12-31T02:22:15.368Z,0
2016-12-31T02:23:14.928Z,0
2016-12-31T02:24:14.498Z,0
2016-12-31T02:25:14.870Z,0
2016-12-31T02:26:14.796Z,0
2016-12-31T02:27:15.150Z,0
2016-12-31T02:28:14.722Z,0
2016-12-31T02:29:13.513Z,0
2016-12-31T02:30:15.021Z,0
2016-12-31T02:31:14.587Z,0
2016-12-31T02:32:14.541Z,0
2016-12-31T02:33:14.884Z,0
2016-12-31T02:34:14.481Z,0
2016-12-31T02:35:14.036Z,0
2016-12-31T02:36:14.371Z,0
2016-12-31T02:37:14.718Z,0
2016-12-31T02:38:13.916Z,0
2016-12-31T02:39:13.857Z,0
2016-12-31T02:40:14.587Z,0
2016-12-31T02:41:14.164Z,0
2016-12-31T02:42:14.120Z,0
2016-12-31T02:43:13.704Z,0
2016-12-31T02:44:14.032Z,0
2016-12-31T02:45:13.993Z,0
2016-12-31T02:46:13.583Z,0
2016-12-31T02:47:13.910Z,0
2016-12-31T02:48:14.248Z,0
2016-12-31T02:49:14.207Z,0
2016-12-31T02:50:13.777Z,0
2016-12-31T02:51:13.763Z,0
2016-12-31T02:52:13.705Z,0
2016-12-31T02:53:13.650Z,0
2016-12-31T02:54:13.602Z,0
2016-12-31T02:55:13.947Z,0
2016-12-31T02:56:13.522Z,0
2016-12-31T02:57:13.858Z,0
2016-12-31T02:58:13.818Z,0
2016-12-31T02:59:13.401Z,0
2016-12-31T03:00:13.344Z,0
2016-12-31T03:01:13.694Z,0
2016-12-31T03:02:13.649Z,0
2016-12-31T03:03:13.211Z,0
2016-12-31T03:04:13.564Z,0
2016-12-31T03:05:12.366Z,0
2016-12-31T03:06:13.483Z,0
2016-12-31T03:07:13.044Z,0
2016-12-31T03:08:13.396Z,0
2016-12-31T03:09:12.956Z,0
2016-12-31T03:10:12.942Z,0
2016-12-31T03:11:12.871Z,0
2016-12-31T03:12:12.836Z,0
2016-12-31T03:13:12.786Z,0
2016-12-31T03:14:12.364Z,0
2016-12-31T03:15:13.113Z,0
2016-12-31T03:16:12.658Z,0
2016-12-31T03:17:12.626Z,0
2016-12-31T03:18:11.799Z,0
2016-12-31T03:19:12.533Z,0
2016-12-31T03:20:12.889Z,0
2016-12-31T03:21:12.835Z,0
2016-12-31T03:22:12.425Z,0
2016-12-31T03:23:12.356Z,0
2016-12-31T03:24:12.698Z,0
2016-12-31T03:25:12.664Z,0
2016-12-31T03:26:12.230Z,0
2016-12-31T03:27:12.573Z,0
2016-12-31T03:28:12.138Z,0
2016-12-31T03:29:12.497Z,0
2016-12-31T03:30:11.292Z,0
2016-12-31T03:31:11.630Z,0
2016-12-31T03:32:11.979Z,0
2016-12-31T03:33:11.930Z,0
2016-12-31T03:34:12.273Z,0
2016-12-31T03:35:11.874Z,0
2016-12-31T03:36:12.199Z,0
2016-12-31T03:37:11.761Z,0
2016-12-31T03:38:11.716Z,0
2016-12-31T03:39:11.669Z,0
2016-12-31T03:40:12.017Z,0
2016-12-31T03:41:11.590Z,0
2016-12-31T03:42:11.548Z,0
2016-12-31T03:43:11.497Z,0
2016-12-31T03:44:11.839Z,0
2016-12-31T03:45:11.421Z,0
2016-12-31T03:46:11.374Z,0
2016-12-31T03:47:10.945Z,0
2016-12-31T03:48:11.673Z,0
2016-12-31T03:49:11.268Z,0
2016-12-31T03:50:11.202Z,0
2016-12-31T03:51:10.779Z,0
2016-12-31T03:52:11.117Z,0
2016-12-31T03:53:10.686Z,0
2016-12-31T03:54:10.647Z,0
2016-12-31T03:55:11.372Z,0
2016-12-31T03:56:10.943Z,0
2016-12-31T03:57:10.532Z,0
2016-12-31T03:58:10.885Z,0
2016-12-31T03:59:10.436Z,0
2016-12-31T04:00:10.403Z,0
2016-12-31T04:01:10.345Z,0
2016-12-31T04:02:10.682Z,0
2016-12-31T04:03:10.649Z,0
2016-12-31T04:04:10.988Z,0
2016-12-31T04:05:10.209Z,0
2016-12-31T04:06:10.910Z,0
2016-12-31T04:07:10.476Z,0
2016-12-31T04:08:10.045Z,0
2016-12-31T04:09:10.786Z,0
2016-12-31T04:10:10.344Z,0
2016-12-31T04:11:10.305Z,0
2016-12-31T04:12:10.644Z,0
2016-12-31T04:13:09.830Z,0
2016-12-31T04:14:10.558Z,0
2016-12-31T04:15:09.748Z,0
2016-12-31T04:16:10.094Z,0
2016-12-31T04:17:10.050Z,0
2016-12-31T04:18:10.006Z,0
2016-12-31T04:19:09.968Z,0
2016-12-31T04:20:09.928Z,0
2016-12-31T04:21:10.258Z,0
2016-12-31T04:22:09.061Z,0
2016-12-31T04:23:09.019Z,0
2016-12-31T04:24:10.129Z,0
2016-12-31T04:25:10.087Z,0
2016-12-31T04:26:09.671Z,0
2016-12-31T04:27:09.231Z,0
2016-12-31T04:28:09.968Z,0
2016-12-31T04:29:09.536Z,0
2016-12-31T04:30:09.101Z,0
2016-12-31T04:31:09.448Z,0
2016-12-31T04:32:09.402Z,0
2016-12-31T04:33:09.360Z,0
2016-12-31T04:34:09.700Z,0
2016-12-31T04:35:09.659Z,0
2016-12-31T04:36:09.617Z,0
2016-12-31T04:37:09.567Z,0
2016-12-31T04:38:09.141Z,0
2016-12-31T04:39:09.127Z,0
2016-12-31T04:40:09.446Z,0
2016-12-31T04:41:08.635Z,0
2016-12-31T04:42:08.969Z,0
2016-12-31T04:43:08.941Z,0
2016-12-31T04:44:09.272Z,0
2016-12-31T04:45:09.223Z,0
2016-12-31T04:46:08.805Z,0
2016-12-31T04:47:09.157Z,0
2016-12-31T04:48:09.100Z,0
2016-12-31T04:49:08.703Z,0
2016-12-31T04:50:09.013Z,0
2016-12-31T04:51:08.970Z,0
2016-12-31T04:52:08.538Z,0
2016-12-31T04:53:08.504Z,0
2016-12-31T04:54:08.846Z,0
2016-12-31T04:55:08.417Z,0
2016-12-31T04:56:08.753Z,0
2016-12-31T04:57:07.971Z,0
2016-12-31T04:58:08.668Z,0
2016-12-31T04:59:08.633Z,0
2016-12-31T05:00:08.203Z,0
2016-12-31T05:01:08.161Z,0
2016-12-31T05:02:08.501Z,0
2016-12-31T05:03:07.707Z,0
2016-12-31T05:04:07.638Z,0
2016-12-31T05:05:08.369Z,0
2016-12-31T05:06:08.325Z,0
2016-12-31T05:07:07.123Z,0
2016-12-31T05:08:07.859Z,0
2016-12-31T05:09:07.817Z,0
2016-12-31T05:10:07.384Z,0
2016-12-31T05:11:08.111Z,0
2016-12-31T05:12:07.685Z,0
2016-12-31T05:13:08.021Z,0
2016-12-31T05:14:07.603Z,0
2016-12-31T05:15:07.171Z,0
2016-12-31T05:16:07.508Z,0
2016-12-31T05:17:07.465Z,0
2016-12-31T05:18:07.041Z,0
2016-12-31T05:19:07.386Z,0
2016-12-31T05:20:06.953Z,0
2016-12-31T05:21:07.299Z,0
2016-12-31T05:22:06.875Z,0
2016-12-31T05:23:07.212Z,0
2016-12-31T05:24:07.553Z,0
2016-12-31T05:25:07.511Z,0
2016-12-31T05:26:07.083Z,0
2016-12-31T05:27:07.040Z,0
2016-12-31T05:28:06.999Z,0
2016-12-31T05:29:06.951Z,0
2016-12-31T05:30:06.912Z,0
2016-12-31T05:31:06.483Z,0
2016-12-31T05:32:06.827Z,0
2016-12-31T05:33:07.169Z,0
2016-12-31T05:34:07.145Z,0
2016-12-31T05:35:07.086Z,0
2016-12-31T05:36:05.884Z,0
2016-12-31T05:37:06.617Z,0
2016-12-31T05:38:06.572Z,0
2016-12-31T05:39:06.532Z,0
2016-12-31T05:40:06.097Z,0
2016-12-31T05:41:06.442Z,0
2016-12-31T05:42:06.021Z,0
2016-12-31T05:43:06.351Z,0
2016-12-31T05:44:06.308Z,0
2016-12-31T05:45:06.271Z,0
2016-12-31T05:46:05.841Z,0
2016-12-31T05:47:06.180Z,0
2016-12-31T05:48:06.139Z,0
2016-12-31T05:49:06.111Z,0
2016-12-31T05:50:06.448Z,0
2016-12-31T05:51:05.620Z,0
2016-12-31T05:52:05.967Z,0
2016-12-31T05:53:05.919Z,0
2016-12-31T05:54:05.879Z,0
2016-12-31T05:55:05.836Z,0
2016-12-31T05:56:06.184Z,0
2016-12-31T05:57:05.751Z,0
2016-12-31T05:58:06.103Z,0
2016-12-31T05:59:05.673Z,0
2016-12-31T06:00:05.252Z,0
2016-12-31T06:01:05.968Z,0
2016-12-31T06:02:05.552Z,0
2016-12-31T06:03:05.107Z,0
2016-12-31T06:04:05.832Z,0
2016-12-31T06:05:05.416Z,0
2016-12-31T06:06:05.363Z,0
2016-12-31T06:07:05.321Z,0
2016-12-31T06:08:04.890Z,0
2016-12-31T06:09:05.236Z,0
2016-12-31T06:10:05.582Z,0
2016-12-31T06:11:05.145Z,0
2016-12-31T06:12:04.717Z,0
2016-12-31T06:13:05.066Z,0
2016-12-31T06:14:05.403Z,0
2016-12-31T06:15:04.590Z,0
2016-12-31T06:16:04.958Z,0
2016-12-31T06:17:05.276Z,0
2016-12-31T06:18:05.236Z,0
2016-12-31T06:19:04.805Z,0
2016-12-31T06:20:05.144Z,0
2016-12-31T06:21:03.954Z,0
2016-12-31T06:22:05.066Z,0
2016-12-31T06:23:04.248Z,0
2016-12-31T06:24:04.594Z,0
2016-12-31T06:25:04.548Z,0
2016-12-31T06:26:04.922Z,0
2016-12-31T06:27:04.458Z,0
2016-12-31T06:28:04.416Z,0
2016-12-31T06:29:04.378Z,0
2016-12-31T06:30:04.341Z,0
2016-12-31T06:31:04.670Z,0
2016-12-31T06:32:04.243Z,0
2016-12-31T06:33:04.585Z,0
2016-12-31T06:34:03.777Z,0
2016-12-31T06:35:04.117Z,0
2016-12-31T06:36:04.484Z,0
2016-12-31T06:37:04.034Z,0
2016-12-31T06:38:03.605Z,0
2016-12-31T06:39:03.564Z,0
2016-12-31T06:40:03.135Z,0
2016-12-31T06:41:03.859Z,0
2016-12-31T06:42:03.043Z,0
2016-12-31T06:43:03.771Z,0
2016-12-31T06:44:03.342Z,0
2016-12-31T06:45:04.080Z,0
2016-12-31T06:46:03.640Z,0
2016-12-31T06:47:03.993Z,0
2016-12-31T06:48:03.947Z,0
2016-12-31T06:49:03.520Z,0
2016-12-31T06:50:03.859Z,0
2016-12-31T06:51:02.656Z,0
2016-12-31T06:52:03.007Z,0
2016-12-31T06:53:03.731Z,0
2016-12-31T06:54:03.331Z,0
2016-12-31T06:55:02.866Z,0
2016-12-31T06:56:03.604Z,0
2016-12-31T06:57:02.787Z,0
2016-12-31T06:58:03.513Z,0
2016-12-31T06:59:03.477Z,0
2016-12-31T07:00:03.040Z,0
2016-12-31T07:01:02.997Z,0
2016-12-31T07:02:02.960Z,0
2016-12-31T07:03:02.549Z,0
2016-12-31T07:04:03.261Z,0
2016-12-31T07:05:02.829Z,0
2016-12-31T07:06:02.782Z,0
2016-12-31T07:07:03.151Z,0
2016-12-31T07:08:03.092Z,0
2016-12-31T07:09:02.273Z,0
2016-12-31T07:10:02.236Z,0
2016-12-31T07:11:02.985Z,0
2016-12-31T07:12:02.926Z,0
2016-12-31T07:13:02.484Z,0
2016-12-31T07:14:02.441Z,0
2016-12-31T07:15:02.396Z,0
2016-12-31T07:16:02.364Z,0
2016-12-31T07:17:02.316Z,0
2016-12-31T07:18:01.884Z,0
2016-12-31T07:19:02.239Z,0
2016-12-31T07:20:01.414Z,0
2016-12-31T07:21:02.531Z,0
2016-12-31T07:22:02.100Z,0
2016-12-31T07:23:02.060Z,0
2016-12-31T07:24:02.402Z,0
2016-12-31T07:25:01.585Z,0
2016-12-31T07:26:02.308Z,0
2016-12-31T07:27:02.270Z,5
2016-12-31T07:28:02.219Z,5
2016-12-31T07:29:01.798Z,5
2016-12-31T07:30:01.751Z,5
2016-12-31T07:31:02.110Z,5
2016-12-31T07:32:01.677Z,5
2016-12-31T07:33:02.008Z,5
2016-12-31T07:34:01.588Z,5
2016-12-31T07:35:01.538Z,5
2016-12-31T07:36:01.503Z,5
2016-12-31T07:37:01.840Z,5
2016-12-31T07:38:01.412Z,5
2016-12-31T07:39:00.985Z,5
2016-12-31T07:40:01.707Z,5
2016-12-31T07:41:01.670Z,5
2016-12-31T07:42:01.247Z,5
2016-12-31T07:43:01.195Z,10
2016-12-31T07:44:01.151Z,10
2016-12-31T07:45:01.497Z,10
2016-12-31T07:46:01.457Z,10
2016-12-31T07:47:01.027Z,10
2016-12-31T07:48:00.212Z,10
2016-12-31T07:49:00.945Z,10
2016-12-31T07:50:00.517Z,10
2016-12-31T07:51:01.241Z,10
2016-12-31T07:52:00.813Z,10
2016-12-31T07:53:00.774Z,10
2016-12-31T07:53:59.953Z,15
2016-12-31T07:55:01.073Z,15
2016-12-31T07:56:01.023Z,15
2016-12-31T07:57:00.599Z,15
2016-12-31T07:58:00.170Z,15
2016-12-31T07:59:00.903Z,15
2016-12-31T08:00:00.085Z,15
2016-12-31T08:01:00.830Z,15
2016-12-31T08:02:00.769Z,15
2016-12-31T08:02:59.954Z,15
2016-12-31T08:04:00.298Z,20
2016-12-31T08:04:59.872Z,20
2016-12-31T08:06:00.600Z,20
2016-12-31T08:07:00.555Z,20
2016-12-31T08:08:00.182Z,20
2016-12-31T08:09:00.091Z,20
2016-12-31T08:10:00.040Z,20
2016-12-31T08:11:00.380Z,20
2016-12-31T08:12:00.336Z,20
2016-12-31T08:12:59.944Z,20
2016-12-31T08:14:00.255Z,20
2016-12-31T08:15:00.220Z,20
2016-12-31T08:16:00.170Z,20
2016-12-31T08:16:59.350Z,25
2016-12-31T08:18:00.087Z,25
2016-12-31T08:19:00.063Z,25
2016-12-31T08:20:00.001Z,25
2016-12-31T08:20:59.182Z,25
2016-12-31T08:21:59.914Z,25
2016-12-31T08:22:59.861Z,30
2016-12-31T08:23:59.438Z,30
2016-12-31T08:24:59.386Z,30
2016-12-31T08:25:58.972Z,30
2016-12-31T08:26:58.924Z,30
2016-12-31T08:27:59.650Z,30
2016-12-31T08:28:59.615Z,30
2016-12-31T08:29:58.798Z,30
2016-12-31T08:30:59.517Z,30
2016-12-31T08:31:59.478Z,30
2016-12-31T08:32:59.437Z,30
2016-12-31T08:33:58.629Z,30
2016-12-31T08:34:58.971Z,30
2016-12-31T08:35:59.307Z,30
2016-12-31T08:36:59.261Z,30
2016-12-31T08:37:58.843Z,30
2016-12-31T08:38:58.790Z,30
2016-12-31T08:39:58.748Z,35
2016-12-31T08:40:59.092Z,35
2016-12-31T08:41:59.051Z,35
2016-12-31T08:42:58.238Z,40
2016-12-31T08:43:58.585Z,40
2016-12-31T08:44:58.918Z,40
2016-12-31T08:45:58.876Z,40
2016-12-31T08:46:58.582Z,45
2016-12-31T08:47:58.792Z,45
2016-12-31T08:48:58.373Z,45
2016-12-31T08:49:58.317Z,45
2016-12-31T08:50:58.280Z,45
2016-12-31T08:51:58.232Z,45
2016-12-31T08:52:58.575Z,45
2016-12-31T08:53:58.530Z,45
2016-12-31T08:54:58.109Z,45
2016-12-31T08:55:58.068Z,45
2016-12-31T08:56:57.633Z,45
2016-12-31T08:57:57.973Z,45
2016-12-31T08:58:58.316Z,45
2016-12-31T08:59:57.902Z,50
2016-12-31T09:00:58.234Z,50
2016-12-31T09:01:57.419Z,50
2016-12-31T09:02:58.149Z,45
2016-12-31T09:03:58.104Z,45
2016-12-31T09:04:58.063Z,45
2016-12-31T09:05:57.633Z,45
2016-12-31T09:06:57.983Z,45
2016-12-31T09:07:57.931Z,45
2016-12-31T09:08:57.504Z,45
2016-12-31T09:09:57.077Z,45
2016-12-31T09:10:56.649Z,45
2016-12-31T09:11:57.755Z,50
2016-12-31T09:12:57.336Z,50
2016-12-31T09:13:57.288Z,50
2016-12-31T09:14:57.632Z,50
2016-12-31T09:15:57.591Z,50
2016-12-31T09:16:57.159Z,50
2016-12-31T09:17:57.518Z,50
2016-12-31T09:18:57.460Z,50
2016-12-31T09:19:57.421Z,50
2016-12-31T09:20:57.376Z,55
2016-12-31T09:21:56.947Z,55
2016-12-31T09:22:56.516Z,60
2016-12-31T09:23:56.864Z,60
2016-12-31T09:24:56.827Z,60
2016-12-31T09:25:56.004Z,55
2016-12-31T09:26:56.742Z,60
2016-12-31T09:27:56.303Z,60
2016-12-31T09:28:57.028Z,60
2016-12-31T09:29:56.988Z,60
2016-12-31T09:30:56.561Z,60
2016-12-31T09:31:56.902Z,60
2016-12-31T09:32:56.476Z,60
2016-12-31T09:33:55.662Z,60
2016-12-31T09:34:56.770Z,60
2016-12-31T09:35:56.346Z,60
2016-12-31T09:36:56.692Z,60
2016-12-31T09:37:56.259Z,60
2016-12-31T09:38:56.220Z,60
2016-12-31T09:39:56.563Z,60
2016-12-31T09:40:55.745Z,60
2016-12-31T09:41:56.474Z,60
2016-12-31T09:42:56.046Z,60
2016-12-31T09:43:56.012Z,65
2016-12-31T09:44:56.342Z,60
2016-12-31T09:45:56.308Z,60
2016-12-31T09:46:55.877Z,60
2016-12-31T09:47:56.223Z,60
2016-12-31T09:48:56.168Z,65
2016-12-31T09:49:55.361Z,65
2016-12-31T09:50:55.696Z,65
2016-12-31T09:51:55.664Z,65
2016-12-31T09:52:55.232Z,65
2016-12-31T09:53:54.796Z,65
2016-12-31T09:54:55.536Z,65
2016-12-31T09:55:55.494Z,65
2016-12-31T09:56:55.073Z,65
2016-12-31T09:57:55.401Z,65
2016-12-31T09:58:55.745Z,65
2016-12-31T09:59:55.714Z,70
2016-12-31T10:00:55.266Z,70
2016-12-31T10:01:55.619Z,70
2016-12-31T10:02:55.580Z,75
2016-12-31T10:03:55.143Z,75
2016-12-31T10:04:55.521Z,75
2016-12-31T10:05:55.439Z,75
2016-12-31T10:06:55.021Z,75
2016-12-31T10:07:55.360Z,80
2016-12-31T10:08:55.314Z,80
2016-12-31T10:09:54.894Z,80
2016-12-31T10:10:54.843Z,80
2016-12-31T10:11:55.185Z,80
2016-12-31T10:12:55.139Z,80
2016-12-31T10:13:54.329Z,75
2016-12-31T10:14:55.054Z,75
2016-12-31T10:15:54.628Z,75
2016-12-31T10:16:54.591Z,75
2016-12-31T10:17:53.784Z,75
2016-12-31T10:18:54.499Z,75
2016-12-31T10:19:54.467Z,75
2016-12-31T10:20:54.806Z,75
2016-12-31T10:21:53.992Z,75
2016-12-31T10:22:54.332Z,75
2016-12-31T10:23:53.899Z,75
2016-12-31T10:24:53.863Z,75
2016-12-31T10:25:53.819Z,75
2016-12-31T10:26:54.168Z,75
2016-12-31T10:27:54.119Z,75
2016-12-31T10:28:54.069Z,80
2016-12-31T10:29:54.031Z,80
2016-12-31T10:30:54.377Z,80
2016-12-31T10:31:54.341Z,80
2016-12-31T10:32:54.299Z,80
2016-12-31T10:33:54.245Z,85
2016-12-31T10:34:54.204Z,85
2016-12-31T10:35:53.781Z,85
2016-12-31T10:36:54.120Z,85
2016-12-31T10:37:53.692Z,90
2016-12-31T10:38:53.260Z,90
2016-12-31T10:39:53.626Z,90
2016-12-31T10:40:53.577Z,95
2016-12-31T10:41:53.940Z,95
2016-12-31T10:42:53.870Z,95
2016-12-31T10:43:53.823Z,95
2016-12-31T10:44:53.399Z,95
2016-12-31T10:45:53.354Z,95
2016-12-31T10:46:53.696Z,100
2016-12-31T10:47:53.680Z,100
2016-12-31T10:48:53.609Z,105
2016-12-31T10:49:52.808Z,105
2016-12-31T10:50:53.137Z,105
2016-12-31T10:51:53.490Z,105
2016-12-31T10:52:53.069Z,105
2016-12-31T10:53:53.404Z,105
2016-12-31T10:54:52.974Z,105
2016-12-31T10:55:52.933Z,105
2016-12-31T10:56:52.116Z,105
2016-12-31T10:57:52.458Z,105
2016-12-31T10:58:53.189Z,105
2016-12-31T10:59:53.146Z,105
2016-12-31T11:00:52.719Z,100
2016-12-31T11:01:53.067Z,100
2016-12-31T11:02:52.635Z,100
2016-12-31T11:03:52.205Z,100
2016-12-31T11:04:52.551Z,95
2016-12-31T11:05:52.507Z,90
2016-12-31T11:06:52.856Z,95
2016-12-31T11:07:52.814Z,100
2016-12-31T11:08:52.413Z,100
2016-12-31T11:09:52.341Z,100
2016-12-31T11:10:51.916Z,105
2016-12-31T11:11:52.632Z,105
2016-12-31T11:12:51.454Z,110
2016-12-31T11:13:52.555Z,120
2016-12-31T11:14:52.514Z,125
2016-12-31T11:15:52.123Z,125
2016-12-31T11:16:52.046Z,120
2016-12-31T11:17:52.392Z,115
2016-12-31T11:18:51.958Z,105
2016-12-31T11:19:52.304Z,100
2016-12-31T11:20:52.266Z,95
2016-12-31T11:21:51.828Z,100
2016-12-31T11:22:52.172Z,100
2016-12-31T11:23:52.136Z,95
2016-12-31T11:24:52.088Z,95
2016-12-31T11:25:51.657Z,95
2016-12-31T11:26:51.236Z,90
2016-12-31T11:27:51.963Z,90
2016-12-31T11:28:51.923Z,90
2016-12-31T11:29:51.492Z,90
2016-12-31T11:30:51.450Z,85
2016-12-31T11:31:51.793Z,85
2016-12-31T11:32:51.770Z,80
2016-12-31T11:33:51.714Z,80
2016-12-31T11:34:51.282Z,80
2016-12-31T11:35:51.630Z,80
2016-12-31T11:36:51.203Z,80
2016-12-31T11:37:51.578Z,80
2016-12-31T11:38:51.499Z,80
2016-12-31T11:39:51.474Z,80
2016-12-31T11:40:51.416Z,80
2016-12-31T11:41:51.369Z,80
2016-12-31T11:42:50.942Z,80
2016-12-31T11:43:51.282Z,80
2016-12-31T11:44:50.471Z,80
2016-12-31T11:45:50.814Z,80
2016-12-31T11:46:50.782Z,85
2016-12-31T11:47:51.118Z,85
2016-12-31T11:48:51.077Z,90
2016-12-31T11:49:51.029Z,85
2016-12-31T11:50:50.615Z,85
2016-12-31T11:51:50.943Z,85
2016-12-31T11:52:49.365Z,90
2016-12-31T11:53:50.865Z,90
2016-12-31T11:54:50.820Z,90
2016-12-31T11:55:50.029Z,95
2016-12-31T11:56:50.359Z,95
2016-12-31T11:57:50.322Z,90
2016-12-31T11:58:50.648Z,90
2016-12-31T11:59:50.605Z,90
2016-12-31T12:00:49.413Z,90
2016-12-31T12:01:50.132Z,85
2016-12-31T12:02:50.101Z,85
2016-12-31T12:03:49.293Z,85
2016-12-31T12:04:50.015Z,85
2016-12-31T12:05:50.354Z,85
2016-12-31T12:06:49.930Z,85
2016-12-31T12:07:50.277Z,85
2016-12-31T12:08:49.892Z,85
2016-12-31T12:09:50.181Z,85
2016-12-31T12:10:49.761Z,85
2016-12-31T12:11:49.328Z,85
2016-12-31T12:12:49.676Z,90
2016-12-31T12:13:49.634Z,90
2016-12-31T12:14:49.594Z,90
2016-12-31T12:15:49.167Z,90
2016-12-31T12:16:49.507Z,90
2016-12-31T12:17:49.075Z,90
2016-12-31T12:18:49.448Z,90
2016-12-31T12:19:49.773Z,90
2016-12-31T12:20:49.720Z,90
2016-12-31T12:21:49.294Z,90
2016-12-31T12:22:49.642Z,90
2016-12-31T12:23:49.595Z,90
2016-12-31T12:24:49.165Z,95
2016-12-31T12:25:49.518Z,90
2016-12-31T12:26:49.092Z,90
2016-12-31T12:27:49.046Z,90
2016-12-31T12:28:48.617Z,90
2016-12-31T12:29:49.337Z,90
2016-12-31T12:30:48.914Z,95
2016-12-31T12:31:48.871Z,90
2016-12-31T12:32:48.836Z,90
2016-12-31T12:33:48.409Z,95
2016-12-31T12:34:49.156Z,95
2016-12-31T12:35:48.702Z,90
2016-12-31T12:36:49.048Z,90
2016-12-31T12:37:48.627Z,90
2016-12-31T12:38:49.017Z,90
2016-12-31T12:39:48.161Z,85
2016-12-31T12:40:48.139Z,85
2016-12-31T12:41:48.450Z,80
2016-12-31T12:42:48.797Z,80
2016-12-31T12:43:48.364Z,80
2016-12-31T12:44:48.710Z,75
2016-12-31T12:45:48.662Z,75
2016-12-31T12:46:48.625Z,75
2016-12-31T12:47:48.198Z,75
2016-12-31T12:48:48.563Z,70
2016-12-31T12:49:48.499Z,70
2016-12-31T12:50:48.462Z,70
2016-12-31T12:51:48.030Z,75
2016-12-31T12:52:48.377Z,75
2016-12-31T12:53:48.328Z,70
2016-12-31T12:54:48.291Z,75
2016-12-31T12:55:47.852Z,75
2016-12-31T12:56:47.811Z,75
2016-12-31T12:57:48.190Z,75
2016-12-31T12:58:48.132Z,75
2016-12-31T12:59:47.314Z,75
2016-12-31T13:00:48.039Z,75
2016-12-31T13:01:47.989Z,75
2016-12-31T13:02:47.562Z,80
2016-12-31T13:03:47.515Z,80
2016-12-31T13:04:47.086Z,85
2016-12-31T13:05:47.854Z,85
2016-12-31T13:06:47.783Z,85
2016-12-31T13:07:47.348Z,85
2016-12-31T13:08:46.928Z,85
2016-12-31T13:09:47.648Z,80
2016-12-31T13:10:47.614Z,80
2016-12-31T13:11:47.562Z,80
2016-12-31T13:12:47.532Z,80
2016-12-31T13:13:47.100Z,80
2016-12-31T13:14:47.437Z,80
2016-12-31T13:15:47.395Z,80
2016-12-31T13:16:46.969Z,80
2016-12-31T13:17:46.167Z,80
2016-12-31T13:18:46.887Z,80
2016-12-31T13:19:46.844Z,80
2016-12-31T13:20:46.800Z,85
2016-12-31T13:21:46.370Z,85
2016-12-31T13:22:46.333Z,85
2016-12-31T13:23:47.059Z,85
2016-12-31T13:24:47.018Z,80
2016-12-31T13:25:46.207Z,80
2016-12-31T13:26:46.934Z,75
2016-12-31T13:27:46.503Z,75
2016-12-31T13:28:46.853Z,75
2016-12-31T13:29:46.416Z,75
2016-12-31T13:30:46.776Z,70
2016-12-31T13:31:46.340Z,70
2016-12-31T13:32:46.296Z,70
2016-12-31T13:33:46.252Z,70
2016-12-31T13:34:46.214Z,70
2016-12-31T13:35:46.168Z,70
2016-12-31T13:36:46.524Z,70
2016-12-31T13:37:46.081Z,65
2016-12-31T13:38:46.423Z,65
2016-12-31T13:39:46.378Z,65
2016-12-31T13:40:45.590Z,60
2016-12-31T13:41:46.298Z,60
2016-12-31T13:42:46.257Z,60
2016-12-31T13:43:46.212Z,55
2016-12-31T13:44:46.167Z,55
2016-12-31T13:45:46.139Z,55
2016-12-31T13:46:46.090Z,50
2016-12-31T13:47:45.683Z,50
2016-12-31T13:48:44.460Z,50
2016-12-31T13:49:45.956Z,50
2016-12-31T13:50:45.926Z,50
2016-12-31T13:51:45.486Z,50
2016-12-31T13:52:45.833Z,50
2016-12-31T13:53:45.030Z,50
2016-12-31T13:54:44.976Z,50
2016-12-31T13:55:45.326Z,50
2016-12-31T13:56:45.280Z,50
2016-12-31T13:57:45.237Z,50
2016-12-31T13:58:45.589Z,50
2016-12-31T13:59:45.546Z,50
2016-12-31T14:00:44.344Z,50
2016-12-31T14:01:45.454Z,50
2016-12-31T14:02:45.029Z,50
2016-12-31T14:03:44.976Z,50
2016-12-31T14:04:43.785Z,50
2016-12-31T14:05:45.280Z,50
2016-12-31T14:06:44.859Z,50
2016-12-31T14:07:44.066Z,50
2016-12-31T14:08:44.781Z,50
2016-12-31T14:09:44.725Z,50
2016-12-31T14:10:44.301Z,50
2016-12-31T14:11:44.258Z,45
2016-12-31T14:12:44.634Z,45
2016-12-31T14:13:44.946Z,45
2016-12-31T14:14:44.508Z,45
2016-12-31T14:15:44.092Z,45
2016-12-31T14:16:44.815Z,45
2016-12-31T14:17:44.409Z,40
2016-12-31T14:18:44.738Z,40
2016-12-31T14:19:44.313Z,40
2016-12-31T14:20:44.262Z,40
2016-12-31T14:21:43.834Z,35
2016-12-31T14:22:43.794Z,35
2016-12-31T14:23:44.136Z,35
2016-12-31T14:24:44.101Z,35
2016-12-31T14:25:44.440Z,35
2016-12-31T14:26:44.461Z,35
2016-12-31T14:27:44.372Z,30
2016-12-31T14:28:44.301Z,30
2016-12-31T14:29:43.509Z,35